ADDS METAR Data INFO
IDs: Format: Raw Decoded Include TAF

Data at: 0505 UTC 23 May 2017

KAQO 230455Z AUTO 00000KT 10SM BKN065 20/18 A2999 RMK AO2
KAQO 230435Z AUTO 00000KT 10SM OVC055 21/18 A3001 RMK AO2 LTG DSNT N
KAQO 230415Z AUTO 00000KT 10SM OVC055 21/18 A3001 RMK AO2
KAQO 230355Z AUTO 00000KT 10SM OVC055 20/19 A3001 RMK AO2
KAQO 230335Z AUTO 00000KT 10SM BKN055 20/18 A2999 RMK AO2
KAQO 230315Z AUTO 00000KT 10SM CLR 19/18 A2997 RMK AO2
KAQO 230255Z AUTO 00000KT 10SM CLR 20/18 A2996 RMK AO2
KAQO 230235Z AUTO 00000KT 10SM CLR 20/18 A2996 RMK AO2
KAQO 230215Z AUTO 00000KT 10SM CLR 20/18 A2996 RMK AO2
KAQO 230155Z AUTO 07005KT 10SM CLR 21/18 A2995 RMK AO2
KAQO 230135Z AUTO 10004KT 10SM FEW040 21/18 A2995 RMK AO2
KAQO 230115Z AUTO 11006KT 10SM BKN040 21/18 A2995 RMK AO2
KAQO 230055Z AUTO 11007KT 10SM OVC040 22/18 A2995 RMK AO2
KAQO 230035Z AUTO 10004KT 10SM SCT021 OVC040 22/18 A2995 RMK AO2 LTG DSNT N
KAQO 230015Z AUTO 12005KT 10SM FEW019 OVC038 22/18 A2996 RMK AO2
KAQO 222355Z AUTO 11007KT 10SM BKN019 OVC036 22/18 A2996 RMK AO2
KAQO 222335Z AUTO 10006KT 10SM OVC021 22/18 A2996 RMK AO2
KAQO 222315Z AUTO 12006KT 10SM BKN021 OVC037 23/19 A2996 RMK AO2
KAQO 222255Z AUTO 09006KT 10SM SCT023 OVC037 23/19 A2996 RMK AO2
KAQO 222235Z AUTO 10007KT 10SM FEW017 OVC037 24/19 A2996 RMK AO2
KAQO 222215Z AUTO 11009KT 10SM SCT018 BKN026 OVC037 23/19 A2996 RMK AO2
KAQO 222155Z AUTO 09008KT 10SM SCT018 BKN032 OVC038 24/19 A2997 RMK AO2
KAQO 222135Z AUTO 06007KT 10SM SCT022 OVC030 23/19 A2998 RMK AO2
KAQO 222115Z AUTO 09007KT 10SM BKN019 BKN026 OVC032 23/19 A2998 RMK AO2
KAQO 222055Z AUTO 12006KT 10SM SCT021 OVC031 24/19 A2999 RMK AO2
KAQO 222035Z AUTO 11007KT 10SM OVC021 24/19 A2999 RMK AO2
KAQO 222015Z AUTO 12009KT 10SM OVC021 24/19 A2999 RMK AO2
KAQO 221955Z AUTO 09006KT 10SM OVC021 23/19 A3000 RMK AO2
KAQO 221935Z AUTO 09005KT 10SM BKN021 OVC026 24/19 A3001 RMK AO2
KAQO 221915Z AUTO 08007KT 10SM BKN021 OVC027 24/19 A3001 RMK AO2
KAQO 221855Z AUTO 10008KT 010V020 10SM BKN017 BKN022 24/19 A3002 RMK AO2
KAQO 221835Z AUTO 10005KT 10SM OVC017 24/18 A3003 RMK AO2
KAQO 221815Z AUTO 11005KT 10SM OVC017 23/18 A3004 RMK AO2
KAQO 221755Z AUTO 13005KT 10SM OVC017 23/18 A3005 RMK AO2
KAQO 221735Z AUTO 11005KT 10SM OVC017 23/18 A3006 RMK AO2
KAQO 221715Z AUTO 00000KT 10SM BKN017 BKN060 23/18 A3006 RMK AO2
KAQO 221655Z AUTO 00000KT 10SM BKN017 BKN034 23/17 A3006 RMK AO2
KAQO 221635Z AUTO 07004KT 10SM BKN017 OVC032 22/17 A3007 RMK AO2
KAQO 221615Z AUTO 00000KT 10SM BKN017 OVC028 21/17 A3007 RMK AO2
KAQO 221555Z AUTO 00000KT 10SM SCT015 OVC028 21/17 A3008 RMK AO2
KAQO 221535Z AUTO 00000KT 10SM FEW013 OVC028 20/16 A3008 RMK AO2
KAQO 221515Z AUTO 00000KT 10SM OVC026 19/16 A3009 RMK AO2
KAQO 221455Z AUTO 08004KT 10SM OVC026 18/16 A3008 RMK AO2
KAQO 221435Z AUTO 08004KT 10SM OVC026 18/16 A3009 RMK AO2
KAQO 221415Z AUTO 00000KT 10SM BKN022 OVC029 18/15 A3009 RMK AO2
KAQO 221355Z AUTO 00000KT 10SM OVC022 17/14 A3009 RMK AO2
KAQO 221335Z AUTO 06003KT 10SM OVC020 17/14 A3008 RMK AO2
KAQO 221315Z AUTO 00000KT 10SM OVC020 16/14 A3008 RMK AO2
KAQO 221255Z AUTO 00000KT 10SM OVC018 16/14 A3009 RMK AO2
KAQO 221235Z AUTO 00000KT 10SM OVC018 16/14 A3009 RMK AO2
KAQO 221215Z AUTO 00000KT 10SM OVC018 16/14 A3009 RMK AO2
KAQO 221155Z AUTO 00000KT 10SM OVC020 16/14 A3009 RMK AO2
KAQO 221135Z AUTO 00000KT 10SM BKN020 OVC028 16/14 A3009 RMK AO2
KAQO 221115Z AUTO 07003KT 10SM FEW009 SCT012 OVC028 16/14 A3009 RMK AO2
KAQO 221055Z AUTO 00000KT 10SM BKN012 OVC029 16/15 A3010 RMK AO2
KAQO 221035Z AUTO 00000KT 10SM OVC012 16/15 A3011 RMK AO2
KAQO 221015Z AUTO 00000KT 10SM OVC012 16/14 A3011 RMK AO2
KAQO 220955Z AUTO 05005KT 10SM BKN012 OVC025 16/14 A3011 RMK AO2
KAQO 220935Z AUTO 00000KT 10SM BKN014 OVC025 16/15 A3010 RMK AO2
KAQO 220915Z AUTO 04005KT 10SM BKN014 OVC023 16/15 A3011 RMK AO2
KAQO 220855Z AUTO 00000KT 10SM BKN012 OVC023 16/15 A3012 RMK AO2
KAQO 220835Z AUTO 00000KT 10SM BKN012 OVC023 16/15 A3012 RMK AO2
KAQO 220815Z AUTO 00000KT 10SM BKN012 OVC021 16/15 A3013 RMK AO2
KAQO 220755Z AUTO 00000KT 10SM BKN012 OVC021 16/15 A3013 RMK AO2
KAQO 220735Z AUTO 00000KT 10SM BKN014 BKN023 16/15 A3014 RMK AO2
KAQO 220715Z AUTO 00000KT 10SM SCT014 SCT120 16/15 A3014 RMK AO2
KAQO 220655Z AUTO 00000KT 10SM FEW055 SCT120 16/14 A3012 RMK AO2
KAQO 220635Z AUTO 00000KT 10SM FEW120 16/14 A3011 RMK AO2
KAQO 220615Z AUTO 00000KT 10SM SCT100 16/14 A3012 RMK AO2
KAQO 220555Z AUTO 00000KT 10SM SCT100 16/14 A3013 RMK AO2
KAQO 220535Z AUTO 00000KT 10SM CLR 16/14 A3012 RMK AO2
KAQO 220515Z AUTO 00000KT 10SM FEW095 SCT120 16/14 A3011 RMK AO2
KAQO 220455Z AUTO 00000KT 10SM FEW014 SCT065 BKN095 16/14 A3014 RMK AO2
KAQO 220435Z AUTO 12003KT 10SM FEW009 BKN012 OVC060 16/14 A3016 RMK AO2
KAQO 220415Z AUTO 11005KT 10SM BKN012 OVC049 16/14 A3017 RMK AO2
KAQO 220355Z AUTO 12003KT 10SM FEW010 BKN017 BKN049 16/14 A3016 RMK AO2
KAQO 220335Z AUTO 00000KT 10SM FEW010 SCT017 16/14 A3014 RMK AO2
KAQO 220315Z AUTO 01004KT 10SM CLR 16/14 A3009 RMK AO2
KAQO 220255Z AUTO 00000KT 10SM FEW001 SCT070 16/14 A3011 RMK AO2
KAQO 220235Z AUTO 00000KT 8SM FEW002 SCT029 BKN070 16/14 A3012 RMK AO2
KAQO 220215Z AUTO 08003KT 10SM SCT047 OVC080 17/15 A3013 RMK AO2 LTG DSNT NE
KAQO 220155Z AUTO 00000KT 10SM FEW033 BKN047 OVC060 17/16 A3014 RMK AO2
KAQO 220135Z AUTO 00000KT 10SM SCT034 BKN047 OVC060 17/16 A3014 RMK AO2 LTG DSNT NE AND SE
KAQO 220115Z AUTO 00000KT 10SM BKN047 BKN055 17/16 A3013 RMK AO2 LTG DSNT NE
KAQO 220055Z AUTO 08003KT 10SM FEW045 SCT055 SCT080 17/16 A3012 RMK AO2 LTG DSNT ALQDS
KAQO 220035Z AUTO 00000KT 10SM FEW047 SCT070 BKN080 17/16 A3012 RMK AO2 LTG DSNT NE AND S
KAQO 220015Z AUTO 11004KT 10SM VCTS SCT045 BKN070 BKN080 17/16 A3013 RMK AO2 LTG DSNT NE AND E AND SW
KAQO 212355Z AUTO 03004KT VCTS 17/16 A3014 RMK AO2 LTG DSNT NE AND S
KAQO 212235Z AUTO 00000KT 5SM TSHZ FEW001 OVC040 20/15 A3016 RMK AO2 LTG DSNT ALQDS
KAQO 212215Z AUTO 01008KT 10SM VCTS OVC036 22/13 A3013 RMK AO2 LTG DSNT ALQDS
KAQO 212155Z AUTO 00000KT 10SM OVC034 22/13 A3013 RMK AO2 LTG DSNT ALQDS
KAQO 212135Z AUTO 00000KT 10SM VCTS BKN032 23/12 A3013 RMK AO2 LTG DSNT N AND NW
KAQO 212115Z AUTO 00000KT 10SM BKN030 22/12 A3012 RMK AO2 LTG DSNT W-N
KAQO 212055Z AUTO 02006KT 10SM VCTS OVC028 23/12 A3011 RMK AO2 LTG DSNT N AND NW
KAQO 212035Z AUTO 05006KT 10SM VCTS OVC026 22/12 A3012 RMK AO2 LTG DSNT SW-NW
KAQO 212015Z AUTO 05011KT 10SM OVC028 23/11 A3011 RMK AO2 LTG DSNT SW-NW
KAQO 211955Z AUTO 08006KT 10SM OVC028 23/11 A3013 RMK AO2 LTG DSNT S-W
KAQO 211935Z AUTO 09006KT 10SM OVC028 23/11 A3014 RMK AO2 LTG DSNT S-NW
KAQO 211915Z AUTO 10006KT 10SM OVC028 23/11 A3014 RMK AO2
KAQO 211855Z AUTO 08008KT 10SM OVC028 23/10 A3013 RMK AO2 LTG DSNT NE AND SW
KAQO 211835Z AUTO 10007KT 10SM OVC030 22/09 A3015 RMK AO2
KAQO 211815Z AUTO 08008KT 10SM OVC032 23/09 A3015 RMK AO2
KAQO 211755Z AUTO 07009KT 10SM BKN032 22/08 A3015 RMK AO2 LTG DSNT NE AND SW
KAQO 211735Z AUTO 07007KT 10SM BKN032 23/09 A3015 RMK AO2
KAQO 211715Z AUTO 06010G14KT 10SM BKN032 23/09 A3016 RMK AO2


Page loaded:  05:05 UTC  |   10:05 PM Pacific  |   11:05 PM Mountain  |   12:05 AM Central  |   01:05 AM Eastern

 

ADVISORIES

FORECASTS

FORECASTS

OBSERVATIONS

USER TOOLS

ABOUT US